Time;durP1;ratioP1;P1;durP2;ratioP2;P2;SDS_P1;SDS_P2;PMS_P1;PMS_P2;Temp;Humidity;BMP_temperature;BMP_pressure;BME280_temperature;BME280_humidity;BME280_pressure;Samples;Min_cycle;Max_cycle;Signal;HPM_P1;HPM_P2
2020/12/27 00:00:16;;;;;;;9.63;3.97;;;0.90;79.50;;;;;;5034888;28;20514;-74
2020/12/27 00:02:42;;;;;;;11.80;3.93;;;0.90;79.50;;;;;;5053165;28;20040;-74
2020/12/27 00:05:09;;;;;;;7.50;3.70;;;0.90;79.50;;;;;;5034787;28;20029;-74
2020/12/27 00:07:35;;;;;;;9.50;4.13;;;0.90;79.30;;;;;;5053163;28;20113;-74
2020/12/27 00:10:05;;;;;;;9.13;3.93;;;0.90;79.20;;;;;;5052923;28;20028;-74
2020/12/27 00:12:31;;;;;;;9.00;4.00;;;0.90;79.40;;;;;;5053119;28;20024;-74
2020/12/27 00:14:57;;;;;;;7.33;4.00;;;0.90;79.20;;;;;;5035207;28;20029;-74
2020/12/27 00:17:23;;;;;;;7.87;3.60;;;0.90;79.40;;;;;;5052211;28;20029;-74
2020/12/27 00:19:48;;;;;;;9.43;3.43;;;1.00;79.30;;;;;;5035172;28;20020;-74
2020/12/27 00:22:15;;;;;;;6.73;3.80;;;1.00;79.40;;;;;;5034506;28;20032;-74
2020/12/27 00:24:41;;;;;;;8.63;4.20;;;1.00;79.20;;;;;;5052974;28;20061;-74
2020/12/27 00:27:07;;;;;;;9.13;4.30;;;0.90;79.20;;;;;;5034302;28;20071;-74
2020/12/27 00:29:32;;;;;;;6.60;3.67;;;0.90;79.50;;;;;;5053173;28;20052;-74
2020/12/27 00:31:58;;;;;;;7.63;3.77;;;0.90;79.50;;;;;;5035032;28;20470;-74
2020/12/27 00:34:24;;;;;;;7.43;4.20;;;0.90;79.70;;;;;;5052175;28;20028;-73
2020/12/27 00:36:55;;;;;;;9.00;4.03;;;0.90;79.90;;;;;;5034970;28;20386;-73
2020/12/27 00:39:21;;;;;;;9.00;4.30;;;0.80;79.90;;;;;;5052093;28;20036;-73
2020/12/27 00:41:47;;;;;;;10.30;3.97;;;0.80;80.60;;;;;;5052622;28;20029;-73
2020/12/27 00:44:13;;;;;;;10.67;4.77;;;0.90;80.20;;;;;;5051687;28;20037;-73
2020/12/27 00:46:38;;;;;;;8.63;3.50;;;0.80;80.00;;;;;;5034871;28;20021;-73
2020/12/27 00:49:04;;;;;;;8.33;4.10;;;0.80;80.00;;;;;;5034138;28;20474;-72
2020/12/27 00:51:29;;;;;;;7.23;3.63;;;0.80;79.90;;;;;;5035013;28;20032;-73
2020/12/27 00:53:55;;;;;;;7.00;3.67;;;0.90;80.00;;;;;;5034397;28;20032;-73
2020/12/27 00:56:21;;;;;;;10.13;3.80;;;0.80;80.00;;;;;;5033908;28;20029;-73
2020/12/27 00:58:47;;;;;;;9.80;3.70;;;0.80;80.00;;;;;;5034443;28;20052;-75
2020/12/27 01:01:14;;;;;;;10.07;3.67;;;0.80;80.10;;;;;;5051891;28;20029;-72
2020/12/27 01:03:40;;;;;;;7.83;3.93;;;0.80;79.90;;;;;;5034398;28;20033;-73
2020/12/27 01:06:06;;;;;;;6.20;3.17;;;0.80;80.00;;;;;;5051781;28;20063;-72
2020/12/27 01:08:32;;;;;;;6.90;3.30;;;0.80;79.40;;;;;;5052657;28;20064;-73
2020/12/27 01:11:02;;;;;;;7.30;3.37;;;0.80;79.80;;;;;;5034649;28;20473;-73
2020/12/27 01:13:28;;;;;;;7.10;3.20;;;0.70;80.40;;;;;;5033895;28;20033;-73
2020/12/27 01:15:55;;;;;;;7.93;3.23;;;0.80;79.80;;;;;;5034440;28;20033;-73
2020/12/27 01:18:20;;;;;;;7.60;3.70;;;0.80;79.60;;;;;;5033864;28;20025;-73
2020/12/27 01:20:46;;;;;;;6.87;2.80;;;0.80;79.80;;;;;;5034663;28;20183;-73
2020/12/27 01:23:12;;;;;;;11.13;3.70;;;0.80;79.80;;;;;;5051523;28;20036;-72
2020/12/27 01:25:37;;;;;;;11.47;3.60;;;0.80;79.70;;;;;;5034108;28;20120;-73
2020/12/27 01:28:03;;;;;;;6.07;3.40;;;0.70;79.90;;;;;;5051925;28;20040;-73
2020/12/27 01:30:29;;;;;;;6.60;3.33;;;0.70;80.10;;;;;;5033748;28;20425;-73
2020/12/27 01:32:56;;;;;;;6.20;3.23;;;0.70;80.20;;;;;;5051855;28;20025;-73
2020/12/27 01:35:21;;;;;;;5.90;2.90;;;0.70;80.00;;;;;;5033678;28;20059;-73
2020/12/27 01:37:47;;;;;;;5.07;2.80;;;0.70;80.00;;;;;;5034005;28;20115;-73
2020/12/27 01:40:13;;;;;;;6.60;2.60;;;0.70;79.90;;;;;;5051757;28;20025;-73
2020/12/27 01:42:38;;;;;;;6.57;2.90;;;0.80;79.70;;;;;;5052061;28;20068;-73
2020/12/27 01:45:05;;;;;;;6.83;3.10;;;0.70;79.30;;;;;;5052012;28;20098;-73
2020/12/27 01:47:34;;;;;;;7.93;2.63;;;0.80;79.10;;;;;;5051461;28;20029;-72
2020/12/27 01:50:01;;;;;;;5.87;3.10;;;0.80;78.80;;;;;;5034201;28;20382;-73
2020/12/27 01:52:27;;;;;;;6.40;2.50;;;0.80;78.60;;;;;;5051325;28;20476;-72
2020/12/27 01:54:53;;;;;;;9.00;3.20;;;0.80;78.30;;;;;;5033896;28;20088;-73
2020/12/27 01:57:53;;;;;;;8.47;3.23;;;0.80;78.40;;;;;;5033143;28;20076;-73
2020/12/27 02:00:22;;;;;;;8.00;2.87;;;0.80;78.10;;;;;;5013542;28;20049;-75
2020/12/27 02:02:48;;;;;;;5.47;3.10;;;0.80;78.20;;;;;;5033937;28;20482;-73
2020/12/27 02:05:13;;;;;;;4.10;2.53;;;0.80;77.70;;;;;;5050983;28;20090;-73
2020/12/27 02:07:40;;;;;;;5.77;2.73;;;0.90;77.80;;;;;;5051590;28;20044;-73
2020/12/27 02:10:05;;;;;;;7.70;2.97;;;0.90;77.70;;;;;;5033936;28;20025;-73
2020/12/27 02:12:31;;;;;;;5.70;2.33;;;0.90;77.70;;;;;;5051275;28;20094;-73
2020/12/27 02:14:57;;;;;;;5.93;2.40;;;0.90;77.00;;;;;;5035463;28;20121;-75
2020/12/27 02:17:22;;;;;;;4.50;2.57;;;0.90;77.00;;;;;;5054488;28;20206;-76
2020/12/27 02:19:48;;;;;;;3.50;2.20;;;0.90;77.60;;;;;;5037419;28;20552;-73
2020/12/27 02:22:13;;;;;;;10.33;2.73;;;0.90;76.90;;;;;;5036761;28;20025;-72
2020/12/27 02:24:39;;;;;;;4.83;2.23;;;1.00;76.60;;;;;;5054918;28;20040;-73
2020/12/27 02:27:05;;;;;;;5.90;2.60;;;1.00;76.50;;;;;;5037208;28;20458;-73
2020/12/27 02:29:34;;;;;;;8.10;2.60;;;1.00;76.60;;;;;;5036626;28;20485;-73
2020/12/27 02:32:00;;;;;;;5.10;2.33;;;1.00;76.70;;;;;;5037139;28;20040;-73
2020/12/27 02:34:26;;;;;;;6.30;2.53;;;1.00;76.60;;;;;;5054484;28;20029;-73
2020/12/27 02:36:52;;;;;;;5.10;2.20;;;1.00;76.60;;;;;;5037179;28;20028;-73
2020/12/27 02:39:19;;;;;;;5.93;2.50;;;1.00;76.60;;;;;;5054360;28;20463;-73
2020/12/27 02:41:48;;;;;;;7.37;2.83;;;1.00;76.80;;;;;;5055111;28;20033;-73
2020/12/27 02:44:14;;;;;;;5.43;2.30;;;1.00;76.70;;;;;;5054158;28;20033;-73
2020/12/27 02:46:40;;;;;;;3.27;2.07;;;1.00;76.60;;;;;;5054732;28;20028;-73
2020/12/27 02:49:06;;;;;;;4.37;2.40;;;1.00;77.20;;;;;;5036759;28;20524;-73
2020/12/27 02:51:32;;;;;;;5.63;2.50;;;1.00;77.20;;;;;;5054058;28;20029;-72
2020/12/27 02:53:58;;;;;;;5.47;2.63;;;0.90;77.40;;;;;;5036523;28;20029;-73
2020/12/27 02:56:26;;;;;;;7.83;2.90;;;0.90;77.80;;;;;;5036439;28;20072;-73
2020/12/27 02:59:00;;;;;;;6.50;2.77;;;0.90;77.70;;;;;;5054494;28;20029;-73
2020/12/27 03:01:26;;;;;;;6.57;2.50;;;0.90;77.80;;;;;;5054043;28;20056;-73
2020/12/27 03:03:52;;;;;;;7.63;3.00;;;0.90;77.60;;;;;;5036279;28;20505;-73
2020/12/27 03:06:18;;;;;;;5.83;2.70;;;0.90;77.80;;;;;;5053472;28;20031;-73
2020/12/27 03:08:44;;;;;;;7.00;2.73;;;0.90;78.10;;;;;;5036539;28;20031;-74
2020/12/27 03:11:10;;;;;;;7.00;3.03;;;0.90;77.90;;;;;;5036617;28;20382;-73
2020/12/27 03:13:36;;;;;;;5.93;3.00;;;0.90;78.00;;;;;;5035848;28;20052;-73
2020/12/27 03:16:05;;;;;;;6.60;2.90;;;0.90;78.20;;;;;;5036319;28;20036;-73
2020/12/27 03:18:32;;;;;;;6.30;3.37;;;0.90;78.10;;;;;;5035591;28;20052;-73
2020/12/27 03:20:57;;;;;;;7.70;2.70;;;0.90;78.30;;;;;;5054394;28;20055;-73
2020/12/27 03:23:23;;;;;;;6.80;3.47;;;0.90;78.40;;;;;;5035304;28;20485;-73
2020/12/27 03:25:49;;;;;;;4.33;3.03;;;0.90;78.30;;;;;;5035338;28;20474;-74
2020/12/27 03:28:15;;;;;;;4.47;2.60;;;0.90;78.50;;;;;;5053254;28;20043;-73
2020/12/27 03:30:41;;;;;;;7.70;2.83;;;0.90;78.40;;;;;;5054310;28;20063;-73
2020/12/27 03:33:07;;;;;;;5.67;2.80;;;0.90;78.50;;;;;;5053929;28;20116;-73
2020/12/27 03:35:33;;;;;;;8.63;3.00;;;0.90;78.40;;;;;;5053309;28;20053;-74
2020/12/27 03:37:59;;;;;;;5.87;2.40;;;0.90;78.10;;;;;;5053825;28;20028;-73
2020/12/27 03:40:24;;;;;;;6.10;3.47;;;0.90;78.40;;;;;;5035272;28;20135;-73
2020/12/27 03:42:50;;;;;;;8.63;2.97;;;1.00;77.20;;;;;;5036058;28;20025;-73
2020/12/27 03:45:16;;;;;;;5.27;2.40;;;1.00;77.60;;;;;;5035286;28;20367;-73
2020/12/27 03:47:42;;;;;;;9.77;2.93;;;1.00;77.10;;;;;;5053687;28;20059;-73
2020/12/27 03:50:08;;;;;;;6.23;2.50;;;1.00;76.50;;;;;;5035875;28;20052;-73
2020/12/27 03:52:33;;;;;;;5.50;2.70;;;1.00;76.80;;;;;;5034985;28;20033;-73
2020/12/27 03:54:59;;;;;;;5.40;2.63;;;1.00;76.90;;;;;;5031706;28;20447;-73
2020/12/27 03:57:24;;;;;;;7.33;2.80;;;1.00;76.50;;;;;;5032730;28;20038;-75
2020/12/27 03:59:50;;;;;;;3.67;2.47;;;1.10;76.10;;;;;;5032357;28;20022;-75
2020/12/27 04:02:16;;;;;;;6.77;2.53;;;1.10;76.10;;;;;;5031595;28;20579;-72
2020/12/27 04:04:42;;;;;;;6.13;2.40;;;1.10;76.00;;;;;;5032191;28;20430;-73
2020/12/27 04:07:08;;;;;;;5.63;2.50;;;1.10;76.10;;;;;;5032105;28;20029;-73
2020/12/27 04:09:33;;;;;;;5.97;2.40;;;1.00;76.50;;;;;;5031499;28;20083;-73
2020/12/27 04:11:59;;;;;;;5.00;2.10;;;1.10;76.10;;;;;;5032150;28;20485;-73
2020/12/27 04:14:25;;;;;;;6.47;2.17;;;1.10;76.30;;;;;;5031548;28;20479;-72
2020/12/27 04:16:51;;;;;;;5.00;2.47;;;1.00;76.40;;;;;;5031964;28;20026;-73
2020/12/27 04:19:17;;;;;;;4.53;2.30;;;1.00;76.30;;;;;;5031294;28;20036;-72
2020/12/27 04:21:44;;;;;;;6.47;2.43;;;1.00;76.50;;;;;;5032065;28;20471;-73
2020/12/27 04:24:10;;;;;;;6.43;2.47;;;1.00;76.60;;;;;;5033079;28;20029;-73
2020/12/27 04:26:36;;;;;;;3.67;2.20;;;1.00;76.50;;;;;;5032509;28;20044;-73
2020/12/27 04:29:01;;;;;;;3.97;2.20;;;1.00;76.60;;;;;;5031708;28;20035;-73
2020/12/27 04:31:27;;;;;;;3.90;2.20;;;1.10;76.90;;;;;;5030848;28;20025;-74
2020/12/27 04:33:53;;;;;;;4.93;2.30;;;1.00;76.70;;;;;;5031605;28;20100;-73
2020/12/27 04:36:20;;;;;;;5.20;2.07;;;1.00;76.70;;;;;;5032336;28;20033;-74
2020/12/27 04:38:46;;;;;;;6.00;1.93;;;1.00;76.90;;;;;;5031545;28;20026;-73
2020/12/27 04:41:17;;;;;;;4.53;2.27;;;1.00;76.70;;;;;;5031520;28;20056;-75
2020/12/27 04:43:47;;;;;;;4.63;2.03;;;1.00;76.90;;;;;;5031446;28;20033;-75
2020/12/27 04:46:14;;;;;;;3.43;1.73;;;1.10;76.50;;;;;;5031561;28;20422;-73
2020/12/27 04:48:44;;;;;;;4.23;1.97;;;1.10;76.60;;;;;;5031883;28;20025;-73
2020/12/27 04:51:11;;;;;;;4.07;2.03;;;1.10;76.60;;;;;;5033239;28;20028;-73
2020/12/27 04:53:38;;;;;;;5.97;2.13;;;1.10;76.90;;;;;;5032067;28;20482;-73
2020/12/27 04:56:05;;;;;;;4.97;2.00;;;1.10;76.50;;;;;;5051592;28;20555;-73
2020/12/27 04:58:31;;;;;;;3.83;2.00;;;1.10;76.70;;;;;;5051845;28;20078;-75
2020/12/27 05:01:01;;;;;;;3.93;2.20;;;1.10;76.90;;;;;;5052433;28;20036;-75
2020/12/27 05:03:27;;;;;;;5.40;2.30;;;1.10;76.80;;;;;;5051717;28;20047;-75
2020/12/27 05:05:55;;;;;;;3.90;2.00;;;1.10;76.80;;;;;;5034568;28;20040;-75
2020/12/27 05:08:21;;;;;;;6.10;2.00;;;1.10;77.10;;;;;;5033966;28;20359;-73
2020/12/27 05:10:47;;;;;;;2.87;1.77;;;1.10;76.90;;;;;;5034961;28;20025;-73
2020/12/27 05:13:15;;;;;;;4.23;2.00;;;1.10;76.80;;;;;;5052276;28;20040;-73
2020/12/27 05:15:41;;;;;;;3.17;1.70;;;1.10;76.90;;;;;;5033760;28;20025;-75
2020/12/27 05:18:09;;;;;;;5.20;2.40;;;1.10;76.90;;;;;;5052371;28;20060;-75
2020/12/27 05:20:36;;;;;;;4.60;1.73;;;1.10;77.20;;;;;;5051643;28;20454;-75
2020/12/27 05:23:05;;;;;;;3.93;1.80;;;1.10;76.90;;;;;;5052195;28;20070;-73
2020/12/27 05:25:35;;;;;;;5.23;1.90;;;1.10;76.90;;;;;;5051340;28;20474;-73
2020/12/27 05:28:03;;;;;;;5.03;1.90;;;1.10;76.70;;;;;;5034550;28;20070;-73
2020/12/27 05:30:29;;;;;;;1.57;1.30;;;1.10;76.80;;;;;;5033675;28;20060;-73
2020/12/27 05:32:56;;;;;;;3.87;1.80;;;1.20;76.80;;;;;;5034312;28;20029;-73
2020/12/27 05:35:22;;;;;;;3.90;1.90;;;1.10;76.90;;;;;;5033612;28;20485;-73
2020/12/27 05:37:49;;;;;;;3.87;1.60;;;1.20;77.30;;;;;;5034355;28;20089;-73
2020/12/27 05:40:15;;;;;;;5.40;1.50;;;1.20;76.30;;;;;;5052122;28;20044;-73
2020/12/27 05:42:43;;;;;;;3.27;1.70;;;1.20;76.10;;;;;;5033577;28;20447;-73
2020/12/27 05:45:17;;;;;;;3.27;1.40;;;1.30;76.00;;;;;;5052004;28;20029;-73
2020/12/27 05:47:44;;;;;;;4.63;1.80;;;1.30;75.60;;;;;;5033642;28;20393;-73
2020/12/27 05:50:17;;;;;;;3.13;1.27;;;1.30;75.90;;;;;;5053866;28;20017;-73
2020/12/27 05:52:49;;;;;;;2.03;1.10;;;1.30;75.40;;;;;;5054990;28;20025;-73
2020/12/27 05:55:20;;;;;;;1.90;1.30;;;1.30;74.70;;;;;;5025277;28;20406;-73
2020/12/27 05:57:51;;;;;;;6.17;1.73;;;1.30;74.90;;;;;;5035182;28;20411;-73
2020/12/27 06:00:19;;;;;;;4.33;2.03;;;1.30;74.70;;;;;;5035472;28;20025;-73
2020/12/27 06:02:44;;;;;;;1.83;1.27;;;1.40;74.40;;;;;;5017212;28;20021;-72
2020/12/27 06:05:11;;;;;;;3.13;1.30;;;1.30;74.60;;;;;;5035702;28;20036;-73
2020/12/27 06:07:39;;;;;;;2.27;1.20;;;1.30;74.50;;;;;;5033720;28;20053;-73
2020/12/27 06:10:16;;;;;;;3.57;1.20;;;1.40;74.40;;;;;;5017857;28;20029;-73
2020/12/27 06:12:57;;;;;;;4.03;1.10;;;1.40;73.70;;;;;;5017255;28;20025;-72
2020/12/27 06:15:25;;;;;;;1.70;1.13;;;1.40;73.40;;;;;;5035701;28;20029;-73
2020/12/27 06:17:51;;;;;;;4.53;1.67;;;1.40;73.40;;;;;;5017639;28;20459;-73
2020/12/27 06:20:21;;;;;;;3.13;1.03;;;1.40;73.30;;;;;;5034169;28;20030;-73
2020/12/27 06:22:49;;;;;;;1.90;1.10;;;1.50;72.90;;;;;;5016906;28;20026;-73
2020/12/27 06:25:15;;;;;;;2.30;0.93;;;1.50;72.70;;;;;;5035149;28;20087;-73
2020/12/27 06:27:41;;;;;;;1.80;1.00;;;1.50;72.60;;;;;;5034290;28;20394;-73
2020/12/27 06:30:11;;;;;;;2.43;1.00;;;1.60;73.10;;;;;;5035126;28;20025;-73
2020/12/27 06:32:47;;;;;;;1.70;1.00;;;1.60;72.30;;;;;;5016734;28;20057;-73
2020/12/27 06:35:13;;;;;;;2.47;1.13;;;1.60;72.50;;;;;;5017081;28;20036;-73
2020/12/27 06:37:44;;;;;;;2.07;1.00;;;1.70;72.60;;;;;;5034448;28;20025;-73
2020/12/27 06:40:11;;;;;;;2.73;1.40;;;1.70;72.90;;;;;;5034990;28;20029;-73
2020/12/27 06:42:36;;;;;;;3.10;1.20;;;1.70;73.30;;;;;;5016516;28;20021;-72
2020/12/27 06:45:04;;;;;;;2.07;1.10;;;1.70;73.50;;;;;;5017191;28;20033;-73
2020/12/27 06:47:50;;;;;;;2.50;1.00;;;1.70;73.10;;;;;;5034230;28;20079;-72
2020/12/27 06:50:17;;;;;;;2.37;1.10;;;1.70;73.00;;;;;;5016983;28;20022;-73
2020/12/27 06:52:44;;;;;;;2.47;1.10;;;1.70;71.80;;;;;;5016347;28;20041;-73
2020/12/27 06:55:09;;;;;;;3.40;0.77;;;1.70;72.20;;;;;;5045753;28;20098;-75
2020/12/27 06:57:43;;;;;;;3.13;0.90;;;1.70;71.20;;;;;;5054010;28;20112;-72
2020/12/27 07:00:32;;;;;;;1.97;0.77;;;1.80;70.20;;;;;;5036509;28;20025;-73
2020/12/27 07:03:18;;;;;;;5.17;1.00;;;1.80;70.00;;;;;;5043683;28;20079;-73
2020/12/27 07:05:45;;;;;;;2.10;0.80;;;1.90;69.80;;;;;;5053864;28;20116;-73
2020/12/27 07:08:16;;;;;;;1.27;0.50;;;1.90;70.00;;;;;;5054431;28;20029;-73
2020/12/27 07:10:43;;;;;;;0.82;0.82;;;1.90;69.50;;;;;;5035822;28;20032;-73
2020/12/27 07:13:14;;;;;;;2.53;0.83;;;1.90;69.10;;;;;;5036389;28;20058;-73
2020/12/27 07:15:59;;;;;;;2.37;0.90;;;2.00;69.20;;;;;;5053667;28;20112;-73
2020/12/27 07:18:27;;;;;;;5.60;0.87;;;2.00;69.10;;;;;;5036404;28;20021;-75
2020/12/27 07:20:58;;;;;;;1.00;0.70;;;2.00;68.80;;;;;;5036323;28;20079;-75
2020/12/27 07:23:30;;;;;;;3.23;0.70;;;2.00;69.50;;;;;;5036201;28;20033;-75
2020/12/27 07:26:02;;;;;;;1.20;0.60;;;2.00;68.80;;;;;;5036061;28;20531;-75
2020/12/27 07:28:29;;;;;;;2.47;1.02;;;2.00;69.20;;;;;;5053450;28;20030;-72
2020/12/27 07:31:05;;;;;;;1.50;0.60;;;2.00;69.30;;;;;;5036159;28;20051;-75
2020/12/27 07:33:36;;;;;;;4.20;1.00;;;2.00;69.20;;;;;;5053424;28;20029;-75
2020/12/27 07:36:07;;;;;;;1.53;0.80;;;2.00;68.90;;;;;;5035684;28;20025;-75
2020/12/27 07:38:51;;;;;;;1.87;0.60;;;2.00;68.80;;;;;;5053259;28;20378;-73
2020/12/27 07:41:24;;;;;;;2.30;0.83;;;2.00;68.60;;;;;;5053776;28;20025;-73
2020/12/27 07:43:50;;;;;;;0.43;0.40;;;2.00;69.10;;;;;;5053121;28;20036;-73
2020/12/27 07:46:19;;;;;;;1.80;0.73;;;2.00;69.00;;;;;;5053383;28;20029;-73
2020/12/27 07:48:45;;;;;;;2.43;0.70;;;2.00;69.10;;;;;;5035232;28;20025;-73
2020/12/27 07:51:15;;;;;;;0.60;0.50;;;2.00;69.30;;;;;;5053576;28;20024;-73
2020/12/27 07:53:55;;;;;;;3.30;0.60;;;2.00;69.50;;;;;;5035117;28;20029;-72
2020/12/27 07:56:22;;;;;;;0.97;0.63;;;2.00;69.30;;;;;;5053850;28;20052;-73
2020/12/27 07:58:56;;;;;;;2.23;0.80;;;2.10;69.50;;;;;;5035036;28;20068;-73
2020/12/27 08:01:23;;;;;;;2.10;0.60;;;2.10;68.80;;;;;;5035174;28;20114;-73
2020/12/27 08:03:53;;;;;;;3.17;0.50;;;2.10;69.00;;;;;;5052672;28;20025;-73
2020/12/27 08:06:20;;;;;;;1.40;0.70;;;2.10;68.80;;;;;;5053398;28;20032;-73
2020/12/27 08:08:46;;;;;;;2.70;0.57;;;2.10;69.10;;;;;;5034882;28;20025;-73
2020/12/27 08:11:19;;;;;;;0.93;0.57;;;2.10;68.90;;;;;;5052955;28;20466;-73
2020/12/27 08:14:12;;;;;;;4.13;0.90;;;2.00;68.90;;;;;;5051962;28;20076;-73
2020/12/27 08:16:39;;;;;;;3.30;0.70;;;2.00;68.90;;;;;;5030856;28;20033;-75
2020/12/27 08:19:12;;;;;;;1.80;0.60;;;2.10;69.50;;;;;;5053122;28;20025;-75
2020/12/27 08:21:40;;;;;;;0.87;0.60;;;2.10;69.40;;;;;;5034665;28;20037;-75
2020/12/27 08:24:07;;;;;;;1.20;0.80;;;2.10;69.40;;;;;;5035194;28;20091;-73
2020/12/27 08:26:36;;;;;;;3.73;0.87;;;2.10;69.80;;;;;;5052033;28;20046;-72
2020/12/27 08:29:14;;;;;;;1.83;0.70;;;2.10;69.70;;;;;;5052905;28;20055;-73
2020/12/27 08:31:44;;;;;;;1.73;0.80;;;2.10;69.40;;;;;;5034145;28;20035;-74
2020/12/27 08:34:14;;;;;;;4.00;0.77;;;2.10;69.40;;;;;;5052693;28;20029;-73
2020/12/27 08:36:44;;;;;;;3.43;0.80;;;2.20;69.70;;;;;;5051864;28;20071;-73
2020/12/27 08:39:34;;;;;;;2.20;0.90;;;2.10;69.60;;;;;;5052664;28;20124;-74
2020/12/27 08:42:08;;;;;;;2.20;0.50;;;2.10;69.80;;;;;;5035039;28;20025;-73
2020/12/27 08:45:15;;;;;;;2.83;0.57;;;2.20;69.70;;;;;;5034192;28;20481;-75
2020/12/27 08:47:49;;;;;;;0.93;0.70;;;2.20;70.00;;;;;;5047633;28;20067;-73
2020/12/27 08:50:34;;;;;;;2.50;0.67;;;2.20;69.90;;;;;;5034967;28;20029;-73
2020/12/27 08:53:02;;;;;;;1.57;0.50;;;2.30;70.10;;;;;;5052554;28;20478;-73
2020/12/27 08:55:30;;;;;;;0.63;0.47;;;2.30;70.00;;;;;;5034344;28;20053;-73
2020/12/27 08:58:03;;;;;;;1.73;0.53;;;2.40;69.90;;;;;;5034076;28;20025;-73
2020/12/27 09:00:36;;;;;;;0.60;0.60;;;2.40;70.00;;;;;;5034698;28;20470;-73
2020/12/27 09:03:03;;;;;;;1.03;0.43;;;2.40;70.00;;;;;;5052440;28;20115;-73
2020/12/27 09:05:34;;;;;;;1.13;0.57;;;2.40;70.00;;;;;;5034381;28;20040;-73
2020/12/27 09:08:12;;;;;;;0.87;0.40;;;2.40;70.50;;;;;;5034675;28;20459;-73
2020/12/27 09:10:39;;;;;;;2.03;0.87;;;2.40;70.70;;;;;;5051893;28;20052;-73
2020/12/27 09:13:07;;;;;;;4.13;0.60;;;2.40;70.80;;;;;;5052293;28;20021;-73
2020/12/27 09:15:34;;;;;;;1.13;0.63;;;2.50;71.00;;;;;;5034566;28;20021;-73
2020/12/27 09:18:01;;;;;;;2.57;0.53;;;2.50;70.30;;;;;;5034419;28;20473;-73
2020/12/27 09:20:28;;;;;;;1.03;0.70;;;2.60;71.50;;;;;;5052232;28;20021;-73
2020/12/27 09:22:55;;;;;;;2.70;0.73;;;2.60;71.20;;;;;;5051651;28;20389;-75
2020/12/27 09:25:22;;;;;;;1.70;0.80;;;2.60;70.80;;;;;;5054312;28;20344;-73
2020/12/27 09:27:49;;;;;;;2.47;0.80;;;2.60;71.00;;;;;;5055763;28;20056;-72
2020/12/27 09:30:23;;;;;;;3.40;1.10;;;2.60;70.70;;;;;;5056217;28;20112;-73
2020/12/27 09:32:49;;;;;;;2.97;0.97;;;2.60;70.90;;;;;;5037774;28;20112;-73
2020/12/27 09:35:22;;;;;;;2.30;1.20;;;2.60;70.80;;;;;;5038523;28;20063;-74
2020/12/27 09:37:49;;;;;;;1.73;0.90;;;2.70;71.40;;;;;;5037549;28;20025;-73
2020/12/27 09:40:16;;;;;;;2.40;0.97;;;2.70;71.30;;;;;;5038151;28;20386;-73
2020/12/27 09:42:43;;;;;;;1.20;0.90;;;2.80;71.10;;;;;;5037073;28;20029;-72
2020/12/27 09:45:25;;;;;;;3.23;1.10;;;2.80;71.50;;;;;;5055947;28;20100;-73
2020/12/27 09:47:58;;;;;;;2.88;1.30;;;2.80;71.80;;;;;;5037455;28;20476;-73
2020/12/27 09:50:37;;;;;;;3.17;1.30;;;2.80;72.10;;;;;;5038187;28;20028;-73
2020/12/27 09:53:06;;;;;;;1.53;1.10;;;2.80;71.80;;;;;;5037955;28;20123;-73
2020/12/27 09:55:34;;;;;;;3.13;1.50;;;2.80;71.90;;;;;;5037646;28;20108;-73
2020/12/27 09:58:00;;;;;;;1.90;1.13;;;2.80;72.10;;;;;;5054941;28;20024;-73
2020/12/27 10:00:26;;;;;;;3.17;1.23;;;2.90;72.30;;;;;;5055393;28;20036;-73
2020/12/27 10:02:52;;;;;;;4.00;1.80;;;2.90;71.90;;;;;;5037112;28;20378;-73
2020/12/27 10:05:17;;;;;;;4.43;1.47;;;2.90;71.50;;;;;;5055631;28;20033;-73
2020/12/27 10:07:44;;;;;;;2.80;1.50;;;2.90;71.40;;;;;;5037119;28;20363;-73
2020/12/27 10:10:12;;;;;;;2.90;1.47;;;3.00;71.20;;;;;;5055488;28;20033;-73
2020/12/27 10:12:38;;;;;;;3.47;1.40;;;3.10;71.50;;;;;;5037094;28;20032;-73
2020/12/27 10:15:06;;;;;;;3.47;1.10;;;3.10;71.10;;;;;;5037638;28;20028;-73
2020/12/27 10:17:32;;;;;;;1.60;1.10;;;3.10;70.40;;;;;;5037465;28;20025;-74
2020/12/27 10:19:58;;;;;;;2.63;1.23;;;3.10;71.20;;;;;;5036866;28;20132;-73
2020/12/27 10:22:25;;;;;;;2.53;1.43;;;3.00;72.00;;;;;;5055240;28;20033;-73
2020/12/27 10:24:51;;;;;;;3.90;1.20;;;3.10;72.10;;;;;;5036642;28;20025;-73
2020/12/27 10:27:16;;;;;;;3.37;1.40;;;3.10;71.80;;;;;;5036970;28;20094;-73
2020/12/27 10:29:42;;;;;;;3.27;1.50;;;3.10;72.10;;;;;;5036734;28;20098;-73
2020/12/27 10:32:08;;;;;;;1.70;1.13;;;3.10;71.80;;;;;;5055168;28;20025;-73
2020/12/27 10:34:34;;;;;;;3.30;1.43;;;3.20;72.00;;;;;;5055056;28;20029;-73
2020/12/27 10:37:01;;;;;;;3.00;1.30;;;3.20;71.80;;;;;;5036016;28;20075;-73
2020/12/27 10:39:27;;;;;;;2.97;1.10;;;3.20;71.70;;;;;;5054979;28;20082;-73
2020/12/27 10:41:53;;;;;;;2.57;1.17;;;3.20;71.30;;;;;;5036408;28;20033;-74
2020/12/27 10:44:20;;;;;;;2.27;1.00;;;3.30;71.70;;;;;;5037248;28;20454;-73
2020/12/27 10:46:49;;;;;;;2.20;1.20;;;3.30;71.80;;;;;;5054224;28;20091;-73
2020/12/27 10:49:15;;;;;;;3.30;1.73;;;3.40;71.60;;;;;;5054752;28;20021;-73
2020/12/27 10:51:41;;;;;;;3.03;1.83;;;3.40;71.20;;;;;;5036311;28;20060;-73
2020/12/27 10:54:09;;;;;;;2.27;1.70;;;3.40;72.00;;;;;;5054367;28;20154;-73
2020/12/27 10:56:35;;;;;;;2.60;1.53;;;3.40;71.50;;;;;;5054896;28;20029;-73
2020/12/27 10:59:01;;;;;;;3.20;1.70;;;3.40;72.00;;;;;;5036026;28;20509;-73
2020/12/27 11:01:27;;;;;;;2.13;1.53;;;3.50;71.90;;;;;;5054553;28;20017;-73
2020/12/27 11:03:52;;;;;;;4.67;1.80;;;3.50;71.80;;;;;;5053807;28;20100;-73
2020/12/27 11:06:18;;;;;;;3.97;1.80;;;3.50;72.20;;;;;;5054178;28;20033;-73
2020/12/27 11:08:44;;;;;;;2.77;1.70;;;3.60;71.80;;;;;;5035938;28;20032;-73
2020/12/27 11:11:10;;;;;;;2.23;1.47;;;3.60;71.60;;;;;;5036446;28;20025;-73
2020/12/27 11:13:36;;;;;;;1.73;1.27;;;3.60;71.70;;;;;;5036753;28;20060;-73
2020/12/27 11:16:02;;;;;;;2.10;1.13;;;3.70;70.90;;;;;;5053911;28;20033;-73
2020/12/27 11:18:28;;;;;;;1.90;1.13;;;3.70;70.20;;;;;;5054255;28;20096;-74
2020/12/27 11:20:54;;;;;;;1.80;0.90;;;3.80;70.30;;;;;;5035712;28;20540;-73
2020/12/27 11:23:19;;;;;;;2.10;1.07;;;3.80;70.40;;;;;;5036319;28;20116;-73
2020/12/27 11:25:45;;;;;;;2.07;1.40;;;3.90;70.40;;;;;;5053514;28;20079;-73
2020/12/27 11:28:11;;;;;;;2.90;1.40;;;3.90;70.40;;;;;;5036209;28;20462;-73
2020/12/27 11:30:37;;;;;;;2.10;1.10;;;4.00;70.40;;;;;;5036157;28;20083;-73
2020/12/27 11:33:02;;;;;;;1.77;1.10;;;4.00;69.90;;;;;;5035488;28;20036;-73
2020/12/27 11:35:28;;;;;;;3.73;1.17;;;4.00;69.40;;;;;;5053825;28;20079;-73
2020/12/27 11:37:54;;;;;;;1.73;1.10;;;4.00;69.70;;;;;;5035424;28;20036;-74
2020/12/27 11:40:20;;;;;;;3.20;0.90;;;4.00;70.60;;;;;;5036011;28;20029;-73
2020/12/27 11:42:46;;;;;;;2.20;1.00;;;4.10;70.90;;;;;;5053130;28;20029;-73
2020/12/27 11:45:12;;;;;;;1.67;1.03;;;4.00;70.70;;;;;;5053424;28;20029;-74
2020/12/27 11:47:38;;;;;;;1.37;0.90;;;4.10;71.10;;;;;;5053098;28;20469;-73
2020/12/27 11:50:04;;;;;;;4.23;0.97;;;4.10;71.40;;;;;;5035071;28;20029;-73
2020/12/27 11:52:30;;;;;;;1.90;0.87;;;4.10;71.40;;;;;;5053612;28;20147;-74
2020/12/27 11:54:56;;;;;;;2.50;1.10;;;4.10;71.50;;;;;;5052867;28;20491;-73
2020/12/27 11:57:21;;;;;;;2.27;1.03;;;4.10;71.90;;;;;;5053645;28;20040;-73
2020/12/27 11:59:47;;;;;;;1.93;1.10;;;4.20;71.70;;;;;;5034937;28;20124;-73
2020/12/27 12:02:13;;;;;;;2.43;1.40;;;4.10;72.20;;;;;;5035862;28;20032;-73
2020/12/27 12:04:38;;;;;;;2.63;1.30;;;4.10;72.40;;;;;;5035345;28;20458;-73
2020/12/27 12:07:04;;;;;;;2.83;1.63;;;4.10;72.40;;;;;;5052726;28;20044;-73
2020/12/27 12:09:30;;;;;;;1.50;1.13;;;4.10;71.90;;;;;;5035399;28;20029;-73
2020/12/27 12:11:56;;;;;;;1.50;1.00;;;4.10;72.30;;;;;;5034798;28;20466;-73
2020/12/27 12:14:21;;;;;;;2.03;1.27;;;4.10;72.10;;;;;;5053152;28;20025;-73
2020/12/27 12:16:47;;;;;;;1.43;1.00;;;4.10;72.60;;;;;;5034582;28;20051;-73
2020/12/27 12:19:13;;;;;;;3.53;1.40;;;4.00;72.40;;;;;;5035240;28;20035;-73
2020/12/27 12:21:38;;;;;;;2.37;1.13;;;4.10;72.40;;;;;;5035203;28;20021;-74
2020/12/27 12:24:04;;;;;;;2.47;1.10;;;4.10;72.50;;;;;;5034282;28;20029;-73
2020/12/27 12:26:32;;;;;;;3.10;1.30;;;4.10;73.10;;;;;;5052721;28;20048;-73
2020/12/27 12:28:59;;;;;;;2.97;1.50;;;4.10;73.10;;;;;;5034563;28;20021;-73
2020/12/27 12:31:26;;;;;;;2.27;1.33;;;4.10;72.90;;;;;;5034973;28;20373;-73
2020/12/27 12:33:51;;;;;;;2.87;1.40;;;4.10;72.60;;;;;;5034356;28;20037;-73
2020/12/27 12:36:24;;;;;;;2.47;1.20;;;4.10;73.20;;;;;;5053036;28;20149;-74
2020/12/27 12:38:51;;;;;;;2.20;1.30;;;4.10;73.10;;;;;;5052238;28;20025;-73
2020/12/27 12:41:26;;;;;;;3.33;1.63;;;4.00;73.00;;;;;;5052729;28;20111;-73
2020/12/27 12:43:52;;;;;;;3.13;1.50;;;4.00;73.40;;;;;;5052093;28;20071;-73
2020/12/27 12:46:18;;;;;;;1.57;1.10;;;4.10;73.40;;;;;;5034816;28;20040;-74
2020/12/27 12:48:45;;;;;;;3.23;1.30;;;4.10;73.20;;;;;;5052845;28;20021;-73
2020/12/27 12:51:11;;;;;;;1.80;1.17;;;4.20;73.40;;;;;;5034098;28;20021;-73
2020/12/27 12:53:37;;;;;;;5.57;1.70;;;4.20;73.30;;;;;;5034658;28;20601;-73
2020/12/27 12:56:04;;;;;;;3.57;1.53;;;4.20;73.10;;;;;;5033786;28;20049;-73
2020/12/27 12:58:30;;;;;;;4.77;1.40;;;4.20;73.50;;;;;;5034510;28;20090;-74
2020/12/27 13:00:55;;;;;;;2.43;1.43;;;4.20;73.30;;;;;;5034060;28;20028;-73